sensor_id;sensor_type;location;lat;lon;timestamp;temperature;humidity
47921;DHT22;33686;48.770;9.186;2023-09-07T04:31:58;14.80;99.90
47921;DHT22;33686;48.770;9.186;2023-09-07T04:34:24;14.80;99.90
47921;DHT22;33686;48.770;9.186;2023-09-07T04:36:51;14.60;99.90
47921;DHT22;33686;48.770;9.186;2023-09-07T04:39:17;14.50;99.90
47921;DHT22;33686;48.770;9.186;2023-09-07T04:41:43;14.50;99.90
47921;DHT22;33686;48.770;9.186;2023-09-07T04:44:09;14.50;99.90
47921;DHT22;33686;48.770;9.186;2023-09-07T04:46:35;14.60;99.90
47921;DHT22;33686;48.770;9.186;2023-09-07T04:49:01;14.60;99.90
47921;DHT22;33686;48.770;9.186;2023-09-07T04:51:28;14.70;99.90
47921;DHT22;33686;48.770;9.186;2023-09-07T04:53:53;14.60;99.90
47921;DHT22;33686;48.770;9.186;2023-09-07T04:56:19;14.70;99.90
47921;DHT22;33686;48.770;9.186;2023-09-07T04:58:45;14.60;99.90
47921;DHT22;33686;48.770;9.186;2023-09-07T05:01:11;14.60;99.90
47921;DHT22;33686;48.770;9.186;2023-09-07T05:03:38;14.70;99.90
47921;DHT22;33686;48.770;9.186;2023-09-07T05:06:06;14.80;99.90
47921;DHT22;33686;48.770;9.186;2023-09-07T05:08:32;14.80;99.90
47921;DHT22;33686;48.770;9.186;2023-09-07T05:10:59;14.90;99.90
47921;DHT22;33686;48.770;9.186;2023-09-07T05:13:25;14.90;99.90
47921;DHT22;33686;48.770;9.186;2023-09-07T05:15:51;14.90;99.90
47921;DHT22;33686;48.770;9.186;2023-09-07T05:18:18;15.00;99.90
47921;DHT22;33686;48.770;9.186;2023-09-07T05:20:44;15.10;99.90
47921;DHT22;33686;48.770;9.186;2023-09-07T05:23:19;15.00;99.90
47921;DHT22;33686;48.770;9.186;2023-09-07T05:25:49;15.00;99.90
47921;DHT22;33686;48.770;9.186;2023-09-07T05:28:20;15.00;99.90
47921;DHT22;33686;48.770;9.186;2023-09-07T05:30:55;14.90;99.90
47921;DHT22;33686;48.770;9.186;2023-09-07T05:33:22;15.10;99.90
47921;DHT22;33686;48.770;9.186;2023-09-07T05:35:48;15.00;99.90
47921;DHT22;33686;48.770;9.186;2023-09-07T05:38:13;15.00;99.90
47921;DHT22;33686;48.770;9.186;2023-09-07T05:40:44;15.10;99.90
47921;DHT22;33686;48.770;9.186;2023-09-07T05:43:14;15.30;99.90
47921;DHT22;33686;48.770;9.186;2023-09-07T05:46:02;15.30;99.90
47921;DHT22;33686;48.770;9.186;2023-09-07T05:48:28;15.30;99.90
47921;DHT22;33686;48.770;9.186;2023-09-07T05:50:54;15.30;99.90
47921;DHT22;33686;48.770;9.186;2023-09-07T05:53:20;15.30;99.90
47921;DHT22;33686;48.770;9.186;2023-09-07T05:55:47;15.40;99.90
47921;DHT22;33686;48.770;9.186;2023-09-07T05:58:13;15.40;99.90
47921;DHT22;33686;48.770;9.186;2023-09-07T06:00:42;15.70;99.90
47921;DHT22;33686;48.770;9.186;2023-09-07T06:03:14;15.90;99.90
47921;DHT22;33686;48.770;9.186;2023-09-07T06:05:40;16.20;99.90
47921;DHT22;33686;48.770;9.186;2023-09-07T06:08:07;16.50;99.90
47921;DHT22;33686;48.770;9.186;2023-09-07T06:10:34;18.30;99.90
47921;DHT22;33686;48.770;9.186;2023-09-07T06:13:01;19.80;99.90
47921;DHT22;33686;48.770;9.186;2023-09-07T06:15:28;21.00;99.90
47921;DHT22;33686;48.770;9.186;2023-09-07T06:17:58;21.90;99.90
47921;DHT22;33686;48.770;9.186;2023-09-07T06:20:24;22.00;99.90
47921;DHT22;33686;48.770;9.186;2023-09-07T06:22:50;22.90;99.90
47921;DHT22;33686;48.770;9.186;2023-09-07T06:25:17;23.40;99.90
47921;DHT22;33686;48.770;9.186;2023-09-07T06:27:43;23.70;99.90
47921;DHT22;33686;48.770;9.186;2023-09-07T06:30:09;24.00;99.90
47921;DHT22;33686;48.770;9.186;2023-09-07T06:32:36;24.40;99.90
47921;DHT22;33686;48.770;9.186;2023-09-07T06:35:02;24.10;99.90
47921;DHT22;33686;48.770;9.186;2023-09-07T06:37:31;24.90;99.90
47921;DHT22;33686;48.770;9.186;2023-09-07T06:39:57;25.50;99.90
47921;DHT22;33686;48.770;9.186;2023-09-07T06:42:23;24.90;99.90
47921;DHT22;33686;48.770;9.186;2023-09-07T06:44:59;25.30;99.90
47921;DHT22;33686;48.770;9.186;2023-09-07T06:47:24;25.70;99.90
47921;DHT22;33686;48.770;9.186;2023-09-07T06:49:50;26.10;99.90
47921;DHT22;33686;48.770;9.186;2023-09-07T06:52:16;26.10;99.90
47921;DHT22;33686;48.770;9.186;2023-09-07T06:54:45;25.70;99.90
47921;DHT22;33686;48.770;9.186;2023-09-07T06:57:11;25.90;99.90
47921;DHT22;33686;48.770;9.186;2023-09-07T06:59:37;26.00;99.90
47921;DHT22;33686;48.770;9.186;2023-09-07T07:02:03;25.70;99.90
47921;DHT22;33686;48.770;9.186;2023-09-07T07:04:31;26.10;99.90
47921;DHT22;33686;48.770;9.186;2023-09-07T07:06:59;25.90;99.90
47921;DHT22;33686;48.770;9.186;2023-09-07T07:09:30;26.10;99.90
47921;DHT22;33686;48.770;9.186;2023-09-07T07:11:59;26.20;99.90
47921;DHT22;33686;48.770;9.186;2023-09-07T07:14:27;26.20;99.90
47921;DHT22;33686;48.770;9.186;2023-09-07T07:16:55;26.50;99.90
47921;DHT22;33686;48.770;9.186;2023-09-07T07:19:22;26.40;99.90
47921;DHT22;33686;48.770;9.186;2023-09-07T07:21:48;26.90;99.90
47921;DHT22;33686;48.770;9.186;2023-09-07T07:24:14;25.60;99.90
47921;DHT22;33686;48.770;9.186;2023-09-07T07:26:40;25.90;99.90
47921;DHT22;33686;48.770;9.186;2023-09-07T07:29:07;26.00;99.90
47921;DHT22;33686;48.770;9.186;2023-09-07T07:31:34;25.80;99.90
47921;DHT22;33686;48.770;9.186;2023-09-07T07:33:59;26.80;99.90
47921;DHT22;33686;48.770;9.186;2023-09-07T07:36:26;26.80;99.90
47921;DHT22;33686;48.770;9.186;2023-09-07T07:38:51;27.40;99.90
47921;DHT22;33686;48.770;9.186;2023-09-07T07:41:18;28.10;99.90
47921;DHT22;33686;48.770;9.186;2023-09-07T07:43:43;28.00;99.90
47921;DHT22;33686;48.770;9.186;2023-09-07T07:46:10;28.50;99.90
47921;DHT22;33686;48.770;9.186;2023-09-07T07:48:43;28.60;99.90
47921;DHT22;33686;48.770;9.186;2023-09-07T07:51:10;27.90;99.90
47921;DHT22;33686;48.770;9.186;2023-09-07T07:53:37;27.80;99.90
47921;DHT22;33686;48.770;9.186;2023-09-07T07:56:03;27.20;99.90
47921;DHT22;33686;48.770;9.186;2023-09-07T07:58:29;28.00;99.90
47921;DHT22;33686;48.770;9.186;2023-09-07T08:00:55;27.80;99.90
47921;DHT22;33686;48.770;9.186;2023-09-07T08:03:26;27.80;99.90
47921;DHT22;33686;48.770;9.186;2023-09-07T08:05:54;27.80;99.90
47921;DHT22;33686;48.770;9.186;2023-09-07T08:08:20;27.60;99.90
47921;DHT22;33686;48.770;9.186;2023-09-07T08:10:46;27.30;99.90
47921;DHT22;33686;48.770;9.186;2023-09-07T08:13:15;27.40;99.90
47921;DHT22;33686;48.770;9.186;2023-09-07T08:15:42;27.00;99.90
47921;DHT22;33686;48.770;9.186;2023-09-07T08:18:11;27.20;99.90
47921;DHT22;33686;48.770;9.186;2023-09-07T08:20:48;27.70;99.90
47921;DHT22;33686;48.770;9.186;2023-09-07T08:23:14;27.90;99.90
47921;DHT22;33686;48.770;9.186;2023-09-07T08:25:40;28.10;99.90
47921;DHT22;33686;48.770;9.186;2023-09-07T08:28:12;28.40;99.90
47921;DHT22;33686;48.770;9.186;2023-09-07T08:30:38;28.60;99.90
47921;DHT22;33686;48.770;9.186;2023-09-07T08:33:05;29.30;99.90
47921;DHT22;33686;48.770;9.186;2023-09-07T08:35:32;28.00;99.90
47921;DHT22;33686;48.770;9.186;2023-09-07T08:38:01;27.90;99.90
47921;DHT22;33686;48.770;9.186;2023-09-07T08:40:30;28.60;99.90
47921;DHT22;33686;48.770;9.186;2023-09-07T08:43:03;27.80;99.90
47921;DHT22;33686;48.770;9.186;2023-09-07T08:45:32;29.50;99.60
47921;DHT22;33686;48.770;9.186;2023-09-07T08:48:02;28.50;99.90
47921;DHT22;33686;48.770;9.186;2023-09-07T08:50:29;28.00;99.90
47921;DHT22;33686;48.770;9.186;2023-09-07T08:52:57;29.10;99.90
47921;DHT22;33686;48.770;9.186;2023-09-07T08:55:26;29.40;99.90
47921;DHT22;33686;48.770;9.186;2023-09-07T08:57:52;28.30;99.90
47921;DHT22;33686;48.770;9.186;2023-09-07T09:00:17;28.30;99.90
47921;DHT22;33686;48.770;9.186;2023-09-07T09:02:48;28.90;99.90
47921;DHT22;33686;48.770;9.186;2023-09-07T09:05:14;28.90;99.90
47921;DHT22;33686;48.770;9.186;2023-09-07T09:07:43;28.60;99.90
47921;DHT22;33686;48.770;9.186;2023-09-07T09:10:09;29.60;99.30
47921;DHT22;33686;48.770;9.186;2023-09-07T09:12:35;29.00;99.70
47921;DHT22;33686;48.770;9.186;2023-09-07T09:15:02;28.90;99.90
47921;DHT22;33686;48.770;9.186;2023-09-07T09:17:32;29.60;99.20
47921;DHT22;33686;48.770;9.186;2023-09-07T09:19:58;29.50;99.40
47921;DHT22;33686;48.770;9.186;2023-09-07T09:22:23;29.10;99.90
47921;DHT22;33686;48.770;9.186;2023-09-07T09:24:53;28.40;99.90
47921;DHT22;33686;48.770;9.186;2023-09-07T09:27:22;28.60;99.90
47921;DHT22;33686;48.770;9.186;2023-09-07T09:29:49;28.70;99.90
47921;DHT22;33686;48.770;9.186;2023-09-07T09:32:16;28.70;99.90
47921;DHT22;33686;48.770;9.186;2023-09-07T09:34:43;28.30;99.90
47921;DHT22;33686;48.770;9.186;2023-09-07T09:37:15;28.20;99.90
47921;DHT22;33686;48.770;9.186;2023-09-07T09:39:47;28.00;99.90
47921;DHT22;33686;48.770;9.186;2023-09-07T09:42:15;28.30;99.90
47921;DHT22;33686;48.770;9.186;2023-09-07T09:44:44;28.10;99.90
47921;DHT22;33686;48.770;9.186;2023-09-07T09:47:10;27.70;99.90
47921;DHT22;33686;48.770;9.186;2023-09-07T09:49:42;26.60;99.90
47921;DHT22;33686;48.770;9.186;2023-09-07T09:52:13;26.40;99.90
47921;DHT22;33686;48.770;9.186;2023-09-07T09:54:39;26.50;99.90
47921;DHT22;33686;48.770;9.186;2023-09-07T09:57:05;26.20;99.90
47921;DHT22;33686;48.770;9.186;2023-09-07T09:59:31;25.80;99.90
47921;DHT22;33686;48.770;9.186;2023-09-07T10:02:01;26.00;99.90
47921;DHT22;33686;48.770;9.186;2023-09-07T10:04:30;25.90;99.90
47921;DHT22;33686;48.770;9.186;2023-09-07T10:06:59;26.10;99.90
47921;DHT22;33686;48.770;9.186;2023-09-07T10:09:33;26.10;99.90
47921;DHT22;33686;48.770;9.186;2023-09-07T10:12:00;26.00;99.90
47921;DHT22;33686;48.770;9.186;2023-09-07T10:14:38;26.20;99.90
47921;DHT22;33686;48.770;9.186;2023-09-07T10:17:06;26.50;99.90
47921;DHT22;33686;48.770;9.186;2023-09-07T10:19:32;25.90;99.90
47921;DHT22;33686;48.770;9.186;2023-09-07T10:22:05;25.50;99.90
47921;DHT22;33686;48.770;9.186;2023-09-07T10:24:32;25.20;99.90
47921;DHT22;33686;48.770;9.186;2023-09-07T10:27:04;25.20;99.90
47921;DHT22;33686;48.770;9.186;2023-09-07T10:29:43;24.70;99.90
47921;DHT22;33686;48.770;9.186;2023-09-07T10:32:13;24.50;99.90
47921;DHT22;33686;48.770;9.186;2023-09-07T10:34:44;24.70;99.90
47921;DHT22;33686;48.770;9.186;2023-09-07T10:37:10;24.80;99.90
47921;DHT22;33686;48.770;9.186;2023-09-07T10:39:37;24.50;99.90
47921;DHT22;33686;48.770;9.186;2023-09-07T10:42:04;24.50;99.90
47921;DHT22;33686;48.770;9.186;2023-09-07T10:44:29;24.70;99.90
47921;DHT22;33686;48.770;9.186;2023-09-07T10:46:56;24.70;99.90
47921;DHT22;33686;48.770;9.186;2023-09-07T10:49:22;24.80;99.90
47921;DHT22;33686;48.770;9.186;2023-09-07T10:51:47;24.70;99.90
47921;DHT22;33686;48.770;9.186;2023-09-07T10:54:16;24.70;99.90
47921;DHT22;33686;48.770;9.186;2023-09-07T10:56:43;24.80;99.90
47921;DHT22;33686;48.770;9.186;2023-09-07T10:59:09;25.00;99.90
47921;DHT22;33686;48.770;9.186;2023-09-07T11:01:34;24.80;99.90
47921;DHT22;33686;48.770;9.186;2023-09-07T11:04:00;24.70;99.90
47921;DHT22;33686;48.770;9.186;2023-09-07T11:06:26;24.70;99.90
47921;DHT22;33686;48.770;9.186;2023-09-07T11:08:52;24.70;99.90
47921;DHT22;33686;48.770;9.186;2023-09-07T11:11:17;24.80;99.90
47921;DHT22;33686;48.770;9.186;2023-09-07T11:13:43;25.00;99.90
47921;DHT22;33686;48.770;9.186;2023-09-07T11:16:09;25.00;99.90
47921;DHT22;33686;48.770;9.186;2023-09-07T11:18:34;24.80;99.90
47921;DHT22;33686;48.770;9.186;2023-09-07T11:21:03;25.00;99.90
47921;DHT22;33686;48.770;9.186;2023-09-07T11:23:32;25.00;99.90
47921;DHT22;33686;48.770;9.186;2023-09-07T11:26:04;24.80;99.90
47921;DHT22;33686;48.770;9.186;2023-09-07T11:28:31;24.70;99.90
47921;DHT22;33686;48.770;9.186;2023-09-07T11:30:57;25.00;99.90
47921;DHT22;33686;48.770;9.186;2023-09-07T11:33:23;25.00;99.90
47921;DHT22;33686;48.770;9.186;2023-09-07T11:35:49;25.00;99.90
47921;DHT22;33686;48.770;9.186;2023-09-07T11:38:15;25.00;99.90
47921;DHT22;33686;48.770;9.186;2023-09-07T11:40:41;25.00;99.90
47921;DHT22;33686;48.770;9.186;2023-09-07T11:43:10;24.90;99.90
47921;DHT22;33686;48.770;9.186;2023-09-07T11:45:36;25.20;99.90
47921;DHT22;33686;48.770;9.186;2023-09-07T11:48:02;25.40;99.90
47921;DHT22;33686;48.770;9.186;2023-09-07T11:50:27;25.30;99.90
47921;DHT22;33686;48.770;9.186;2023-09-07T11:52:55;25.30;99.90
47921;DHT22;33686;48.770;9.186;2023-09-07T11:55:21;25.30;99.90
47921;DHT22;33686;48.770;9.186;2023-09-07T11:57:47;25.60;99.90
47921;DHT22;33686;48.770;9.186;2023-09-07T12:00:12;25.70;99.90
47921;DHT22;33686;48.770;9.186;2023-09-07T12:02:40;25.70;99.90
47921;DHT22;33686;48.770;9.186;2023-09-07T12:05:06;25.90;99.90
47921;DHT22;33686;48.770;9.186;2023-09-07T12:07:38;25.80;99.90
47921;DHT22;33686;48.770;9.186;2023-09-07T12:10:03;25.90;99.90
47921;DHT22;33686;48.770;9.186;2023-09-07T12:12:29;25.90;99.90
47921;DHT22;33686;48.770;9.186;2023-09-07T12:14:55;25.80;99.90
47921;DHT22;33686;48.770;9.186;2023-09-07T12:17:22;25.80;99.90
47921;DHT22;33686;48.770;9.186;2023-09-07T12:19:47;25.90;99.90
47921;DHT22;33686;48.770;9.186;2023-09-07T12:22:13;26.00;99.90
47921;DHT22;33686;48.770;9.186;2023-09-07T12:24:38;25.80;99.90
47921;DHT22;33686;48.770;9.186;2023-09-07T12:27:04;25.90;99.90
47921;DHT22;33686;48.770;9.186;2023-09-07T12:29:29;26.10;99.90
47921;DHT22;33686;48.770;9.186;2023-09-07T12:31:55;26.10;99.90
47921;DHT22;33686;48.770;9.186;2023-09-07T12:34:20;26.10;99.90
47921;DHT22;33686;48.770;9.186;2023-09-07T12:36:46;26.20;99.90
47921;DHT22;33686;48.770;9.186;2023-09-07T12:39:11;26.30;99.90
47921;DHT22;33686;48.770;9.186;2023-09-07T12:41:38;26.10;99.90
47921;DHT22;33686;48.770;9.186;2023-09-07T12:44:04;26.30;99.90
47921;DHT22;33686;48.770;9.186;2023-09-07T12:46:30;26.50;99.90
47921;DHT22;33686;48.770;9.186;2023-09-07T12:48:56;26.60;99.90
47921;DHT22;33686;48.770;9.186;2023-09-07T12:51:21;26.90;99.90
47921;DHT22;33686;48.770;9.186;2023-09-07T12:53:47;27.00;99.90
47921;DHT22;33686;48.770;9.186;2023-09-07T12:56:12;26.90;99.90
47921;DHT22;33686;48.770;9.186;2023-09-07T12:58:38;27.00;99.90
47921;DHT22;33686;48.770;9.186;2023-09-07T13:01:04;26.60;99.90
47921;DHT22;33686;48.770;9.186;2023-09-07T13:03:30;26.90;99.90
47921;DHT22;33686;48.770;9.186;2023-09-07T13:05:55;27.10;99.90
47921;DHT22;33686;48.770;9.186;2023-09-07T13:08:21;27.20;99.90
47921;DHT22;33686;48.770;9.186;2023-09-07T13:10:46;27.10;99.90
47921;DHT22;33686;48.770;9.186;2023-09-07T13:13:12;27.10;99.90
47921;DHT22;33686;48.770;9.186;2023-09-07T13:15:37;27.20;99.90
47921;DHT22;33686;48.770;9.186;2023-09-07T13:18:03;27.30;99.90
47921;DHT22;33686;48.770;9.186;2023-09-07T13:20:29;27.30;99.90
47921;DHT22;33686;48.770;9.186;2023-09-07T13:22:55;27.30;99.90
47921;DHT22;33686;48.770;9.186;2023-09-07T13:25:20;27.40;99.90
47921;DHT22;33686;48.770;9.186;2023-09-07T13:27:46;27.30;99.90
47921;DHT22;33686;48.770;9.186;2023-09-07T13:30:12;27.50;99.90
47921;DHT22;33686;48.770;9.186;2023-09-07T13:32:37;27.40;99.90
47921;DHT22;33686;48.770;9.186;2023-09-07T13:35:04;27.40;99.90
47921;DHT22;33686;48.770;9.186;2023-09-07T13:37:29;27.40;99.90
47921;DHT22;33686;48.770;9.186;2023-09-07T13:39:55;27.50;99.90
47921;DHT22;33686;48.770;9.186;2023-09-07T13:42:21;27.50;99.90
47921;DHT22;33686;48.770;9.186;2023-09-07T13:44:46;27.50;99.90
47921;DHT22;33686;48.770;9.186;2023-09-07T13:47:12;27.50;99.90
47921;DHT22;33686;48.770;9.186;2023-09-07T13:49:38;27.60;99.90
47921;DHT22;33686;48.770;9.186;2023-09-07T13:52:04;27.80;99.90
47921;DHT22;33686;48.770;9.186;2023-09-07T13:54:29;27.90;99.90
47921;DHT22;33686;48.770;9.186;2023-09-07T13:56:55;27.80;99.90
47921;DHT22;33686;48.770;9.186;2023-09-07T13:59:21;27.70;99.90
47921;DHT22;33686;48.770;9.186;2023-09-07T14:01:46;27.70;99.90
47921;DHT22;33686;48.770;9.186;2023-09-07T14:04:12;27.90;99.90
47921;DHT22;33686;48.770;9.186;2023-09-07T14:06:38;27.90;99.90
47921;DHT22;33686;48.770;9.186;2023-09-07T14:09:03;27.90;99.90
47921;DHT22;33686;48.770;9.186;2023-09-07T14:11:32;27.70;99.90
47921;DHT22;33686;48.770;9.186;2023-09-07T14:13:58;27.90;99.90
47921;DHT22;33686;48.770;9.186;2023-09-07T14:16:24;28.00;99.90
47921;DHT22;33686;48.770;9.186;2023-09-07T14:18:49;28.00;99.90
47921;DHT22;33686;48.770;9.186;2023-09-07T14:21:15;28.00;99.90
47921;DHT22;33686;48.770;9.186;2023-09-07T14:23:41;28.10;99.90
47921;DHT22;33686;48.770;9.186;2023-09-07T14:26:08;28.00;99.90
47921;DHT22;33686;48.770;9.186;2023-09-07T14:28:34;28.20;99.90
47921;DHT22;33686;48.770;9.186;2023-09-07T14:31:00;28.20;99.90
47921;DHT22;33686;48.770;9.186;2023-09-07T14:33:28;28.10;99.90
47921;DHT22;33686;48.770;9.186;2023-09-07T14:35:54;28.00;99.90
47921;DHT22;33686;48.770;9.186;2023-09-07T14:38:20;28.10;99.90
47921;DHT22;33686;48.770;9.186;2023-09-07T14:40:46;28.00;99.90
47921;DHT22;33686;48.770;9.186;2023-09-07T14:43:14;28.10;99.90
47921;DHT22;33686;48.770;9.186;2023-09-07T14:45:39;28.10;99.90
47921;DHT22;33686;48.770;9.186;2023-09-07T14:48:05;28.30;99.90
47921;DHT22;33686;48.770;9.186;2023-09-07T14:50:30;28.10;99.90
47921;DHT22;33686;48.770;9.186;2023-09-07T14:52:56;27.90;99.90
47921;DHT22;33686;48.770;9.186;2023-09-07T14:55:21;28.10;99.90
47921;DHT22;33686;48.770;9.186;2023-09-07T14:57:47;28.10;99.90
47921;DHT22;33686;48.770;9.186;2023-09-07T15:00:12;28.10;99.90
47921;DHT22;33686;48.770;9.186;2023-09-07T15:02:38;28.00;99.90
47921;DHT22;33686;48.770;9.186;2023-09-07T15:05:04;28.10;99.90
47921;DHT22;33686;48.770;9.186;2023-09-07T15:07:29;28.10;99.90
47921;DHT22;33686;48.770;9.186;2023-09-07T15:09:55;28.00;99.90
47921;DHT22;33686;48.770;9.186;2023-09-07T15:12:20;28.10;99.90
47921;DHT22;33686;48.770;9.186;2023-09-07T15:14:46;28.00;99.90
47921;DHT22;33686;48.770;9.186;2023-09-07T15:17:12;28.10;99.90
47921;DHT22;33686;48.770;9.186;2023-09-07T15:19:39;28.00;99.90
47921;DHT22;33686;48.770;9.186;2023-09-07T15:22:04;28.10;99.90
47921;DHT22;33686;48.770;9.186;2023-09-07T15:24:30;28.20;99.90
47921;DHT22;33686;48.770;9.186;2023-09-07T15:26:56;28.10;99.90
47921;DHT22;33686;48.770;9.186;2023-09-07T15:29:21;28.10;99.90
47921;DHT22;33686;48.770;9.186;2023-09-07T15:31:47;28.10;99.90
47921;DHT22;33686;48.770;9.186;2023-09-07T15:34:12;28.00;99.90
47921;DHT22;33686;48.770;9.186;2023-09-07T15:36:38;28.00;99.90
47921;DHT22;33686;48.770;9.186;2023-09-07T15:39:04;27.90;99.90
47921;DHT22;33686;48.770;9.186;2023-09-07T15:41:29;27.90;99.90
47921;DHT22;33686;48.770;9.186;2023-09-07T15:43:55;28.10;99.90
47921;DHT22;33686;48.770;9.186;2023-09-07T15:46:21;27.90;99.90
47921;DHT22;33686;48.770;9.186;2023-09-07T15:48:46;27.80;99.90
47921;DHT22;33686;48.770;9.186;2023-09-07T15:51:12;27.80;99.90
47921;DHT22;33686;48.770;9.186;2023-09-07T15:53:38;27.70;99.90
47921;DHT22;33686;48.770;9.186;2023-09-07T15:56:03;27.70;99.90
47921;DHT22;33686;48.770;9.186;2023-09-07T15:58:29;27.70;99.90
47921;DHT22;33686;48.770;9.186;2023-09-07T16:00:56;27.70;99.90
47921;DHT22;33686;48.770;9.186;2023-09-07T16:03:21;27.70;99.90
47921;DHT22;33686;48.770;9.186;2023-09-07T16:05:47;27.70;99.90
47921;DHT22;33686;48.770;9.186;2023-09-07T16:08:13;27.70;99.90
47921;DHT22;33686;48.770;9.186;2023-09-07T16:10:38;27.50;99.90
47921;DHT22;33686;48.770;9.186;2023-09-07T16:13:04;27.50;99.90
47921;DHT22;33686;48.770;9.186;2023-09-07T16:15:30;27.50;99.90
47921;DHT22;33686;48.770;9.186;2023-09-07T16:17:56;27.50;99.90
47921;DHT22;33686;48.770;9.186;2023-09-07T16:20:21;27.50;99.90
47921;DHT22;33686;48.770;9.186;2023-09-07T16:22:47;27.50;99.90
47921;DHT22;33686;48.770;9.186;2023-09-07T16:25:13;27.50;99.90
47921;DHT22;33686;48.770;9.186;2023-09-07T16:27:38;27.40;99.90
47921;DHT22;33686;48.770;9.186;2023-09-07T16:30:09;27.40;99.90
47921;DHT22;33686;48.770;9.186;2023-09-07T16:32:35;27.40;99.90
47921;DHT22;33686;48.770;9.186;2023-09-07T16:35:02;27.30;99.90
47921;DHT22;33686;48.770;9.186;2023-09-07T16:37:28;27.40;99.90
47921;DHT22;33686;48.770;9.186;2023-09-07T16:39:54;27.40;99.90
47921;DHT22;33686;48.770;9.186;2023-09-07T16:42:19;27.20;99.90
47921;DHT22;33686;48.770;9.186;2023-09-07T16:44:45;27.20;99.90
47921;DHT22;33686;48.770;9.186;2023-09-07T16:47:11;27.20;99.90
47921;DHT22;33686;48.770;9.186;2023-09-07T16:49:36;27.10;99.90
47921;DHT22;33686;48.770;9.186;2023-09-07T16:52:02;27.10;99.90
47921;DHT22;33686;48.770;9.186;2023-09-07T16:54:27;27.20;99.90
47921;DHT22;33686;48.770;9.186;2023-09-07T16:56:53;27.00;99.90
47921;DHT22;33686;48.770;9.186;2023-09-07T16:59:18;27.00;99.90
47921;DHT22;33686;48.770;9.186;2023-09-07T17:01:44;26.90;99.90
47921;DHT22;33686;48.770;9.186;2023-09-07T17:04:09;26.80;99.90
47921;DHT22;33686;48.770;9.186;2023-09-07T17:06:35;26.70;99.90
47921;DHT22;33686;48.770;9.186;2023-09-07T17:09:00;26.70;99.90
47921;DHT22;33686;48.770;9.186;2023-09-07T17:11:27;26.70;99.90
47921;DHT22;33686;48.770;9.186;2023-09-07T17:13:52;26.60;99.90
47921;DHT22;33686;48.770;9.186;2023-09-07T17:16:18;26.50;99.90
47921;DHT22;33686;48.770;9.186;2023-09-07T17:18:43;26.50;99.90
47921;DHT22;33686;48.770;9.186;2023-09-07T17:21:09;26.40;99.90
47921;DHT22;33686;48.770;9.186;2023-09-07T17:23:35;26.30;99.90
47921;DHT22;33686;48.770;9.186;2023-09-07T17:26:03;26.20;99.90
47921;DHT22;33686;48.770;9.186;2023-09-07T17:28:29;26.00;99.90
47921;DHT22;33686;48.770;9.186;2023-09-07T17:30:54;25.90;99.90
47921;DHT22;33686;48.770;9.186;2023-09-07T17:33:20;25.80;99.90
47921;DHT22;33686;48.770;9.186;2023-09-07T17:35:46;25.80;99.90
47921;DHT22;33686;48.770;9.186;2023-09-07T17:38:11;25.70;99.90
47921;DHT22;33686;48.770;9.186;2023-09-07T17:40:37;25.70;99.90
47921;DHT22;33686;48.770;9.186;2023-09-07T17:43:02;25.60;99.90
47921;DHT22;33686;48.770;9.186;2023-09-07T17:45:28;25.40;99.90
47921;DHT22;33686;48.770;9.186;2023-09-07T17:47:54;25.20;99.90
47921;DHT22;33686;48.770;9.186;2023-09-07T17:50:19;25.00;99.90
47921;DHT22;33686;48.770;9.186;2023-09-07T17:52:45;24.50;99.90
47921;DHT22;33686;48.770;9.186;2023-09-07T17:55:10;24.20;99.90
47921;DHT22;33686;48.770;9.186;2023-09-07T17:57:36;24.00;99.90
47921;DHT22;33686;48.770;9.186;2023-09-07T18:00:02;23.80;99.90
47921;DHT22;33686;48.770;9.186;2023-09-07T18:02:30;23.70;99.90
47921;DHT22;33686;48.770;9.186;2023-09-07T18:04:58;23.60;99.90
47921;DHT22;33686;48.770;9.186;2023-09-07T18:07:24;23.50;99.90
47921;DHT22;33686;48.770;9.186;2023-09-07T18:09:50;23.30;99.90
47921;DHT22;33686;48.770;9.186;2023-09-07T18:12:16;23.10;99.90
47921;DHT22;33686;48.770;9.186;2023-09-07T18:14:41;23.10;99.90
47921;DHT22;33686;48.770;9.186;2023-09-07T18:17:07;23.00;99.90
47921;DHT22;33686;48.770;9.186;2023-09-07T18:19:32;22.90;99.90
47921;DHT22;33686;48.770;9.186;2023-09-07T18:21:58;22.90;99.90
47921;DHT22;33686;48.770;9.186;2023-09-07T18:24:24;22.90;99.90
47921;DHT22;33686;48.770;9.186;2023-09-07T18:26:49;22.80;99.90
47921;DHT22;33686;48.770;9.186;2023-09-07T18:29:15;22.80;99.90
47921;DHT22;33686;48.770;9.186;2023-09-07T18:31:42;22.70;99.90
47921;DHT22;33686;48.770;9.186;2023-09-07T18:34:07;22.80;99.90
47921;DHT22;33686;48.770;9.186;2023-09-07T18:36:33;22.80;99.90
47921;DHT22;33686;48.770;9.186;2023-09-07T18:38:58;22.70;99.90
47921;DHT22;33686;48.770;9.186;2023-09-07T18:41:24;22.60;99.90
47921;DHT22;33686;48.770;9.186;2023-09-07T18:43:49;22.60;99.90
47921;DHT22;33686;48.770;9.186;2023-09-07T18:46:15;22.60;99.90
47921;DHT22;33686;48.770;9.186;2023-09-07T18:48:41;22.60;99.90
47921;DHT22;33686;48.770;9.186;2023-09-07T18:51:07;22.50;99.90
47921;DHT22;33686;48.770;9.186;2023-09-07T18:53:34;22.40;99.90
47921;DHT22;33686;48.770;9.186;2023-09-07T18:56:06;22.30;99.90
47921;DHT22;33686;48.770;9.186;2023-09-07T18:58:32;22.10;99.90
47921;DHT22;33686;48.770;9.186;2023-09-07T19:00:58;21.90;99.90
47921;DHT22;33686;48.770;9.186;2023-09-07T19:03:23;21.90;99.90
47921;DHT22;33686;48.770;9.186;2023-09-07T19:05:49;21.80;99.90
47921;DHT22;33686;48.770;9.186;2023-09-07T19:08:15;21.70;99.90
47921;DHT22;33686;48.770;9.186;2023-09-07T19:10:40;21.60;99.90
47921;DHT22;33686;48.770;9.186;2023-09-07T19:13:06;21.60;99.90
47921;DHT22;33686;48.770;9.186;2023-09-07T19:15:31;21.60;99.90
47921;DHT22;33686;48.770;9.186;2023-09-07T19:17:57;21.50;99.90
47921;DHT22;33686;48.770;9.186;2023-09-07T19:20:23;21.50;99.90
47921;DHT22;33686;48.770;9.186;2023-09-07T19:22:48;21.50;99.90
47921;DHT22;33686;48.770;9.186;2023-09-07T19:25:14;21.40;99.90
47921;DHT22;33686;48.770;9.186;2023-09-07T19:27:39;21.40;99.90
47921;DHT22;33686;48.770;9.186;2023-09-07T19:30:08;21.30;99.90
47921;DHT22;33686;48.770;9.186;2023-09-07T19:32:34;21.30;99.90
47921;DHT22;33686;48.770;9.186;2023-09-07T19:35:00;21.30;99.90
47921;DHT22;33686;48.770;9.186;2023-09-07T19:37:28;21.40;99.90
47921;DHT22;33686;48.770;9.186;2023-09-07T19:39:54;21.20;99.90
47921;DHT22;33686;48.770;9.186;2023-09-07T19:42:19;21.20;99.90
47921;DHT22;33686;48.770;9.186;2023-09-07T19:44:45;21.20;99.90
47921;DHT22;33686;48.770;9.186;2023-09-07T19:47:10;21.00;99.90
47921;DHT22;33686;48.770;9.186;2023-09-07T19:49:36;21.00;99.90
47921;DHT22;33686;48.770;9.186;2023-09-07T19:52:02;20.90;99.90
47921;DHT22;33686;48.770;9.186;2023-09-07T19:54:27;20.90;99.90
47921;DHT22;33686;48.770;9.186;2023-09-07T19:56:53;20.80;99.90